sensor_id;sensor_type;location;lat;lon;timestamp;pressure;altitude;pressure_sealevel;temperature;humidity
64711;BME280;51139;45.626;6.850;2023-08-12T00:00:54;82920.25;;;19.10;57.97
64711;BME280;51139;45.626;6.850;2023-08-12T00:03:19;82917.75;;;18.91;58.98
64711;BME280;51139;45.626;6.850;2023-08-12T00:05:45;82915.28;;;18.83;59.82
64711;BME280;51139;45.626;6.850;2023-08-12T00:08:10;82916.91;;;18.88;59.97
64711;BME280;51139;45.626;6.850;2023-08-12T00:10:36;82917.34;;;19.06;59.72
64711;BME280;51139;45.626;6.850;2023-08-12T00:13:01;82913.31;;;18.95;60.34
64711;BME280;51139;45.626;6.850;2023-08-12T00:15:27;82920.84;;;19.09;59.32
64711;BME280;51139;45.626;6.850;2023-08-12T00:17:52;82914.31;;;19.12;59.47
64711;BME280;51139;45.626;6.850;2023-08-12T00:20:18;82911.72;;;18.69;61.32
64711;BME280;51139;45.626;6.850;2023-08-12T00:22:43;82909.16;;;18.59;62.20
64711;BME280;51139;45.626;6.850;2023-08-12T00:25:09;82910.13;;;18.75;61.72
64711;BME280;51139;45.626;6.850;2023-08-12T00:27:35;82916.31;;;18.78;61.41
64711;BME280;51139;45.626;6.850;2023-08-12T00:30:00;82911.47;;;18.64;62.28
64711;BME280;51139;45.626;6.850;2023-08-12T00:32:26;82904.28;;;18.67;62.50
64711;BME280;51139;45.626;6.850;2023-08-12T00:34:51;82910.31;;;18.56;62.83
64711;BME280;51139;45.626;6.850;2023-08-12T00:37:17;82910.88;;;18.54;62.89
64711;BME280;51139;45.626;6.850;2023-08-12T00:39:42;82904.94;;;18.56;63.07
64711;BME280;51139;45.626;6.850;2023-08-12T00:42:07;82904.50;;;18.37;64.29
64711;BME280;51139;45.626;6.850;2023-08-12T00:44:33;82913.38;;;18.40;63.94
64711;BME280;51139;45.626;6.850;2023-08-12T00:46:58;82903.69;;;18.35;63.43
64711;BME280;51139;45.626;6.850;2023-08-12T00:49:26;82908.34;;;18.34;64.08
64711;BME280;51139;45.626;6.850;2023-08-12T00:51:52;82912.56;;;18.37;64.23
64711;BME280;51139;45.626;6.850;2023-08-12T00:54:18;82911.19;;;18.48;63.60
64711;BME280;51139;45.626;6.850;2023-08-12T00:56:48;82909.09;;;18.47;63.24
64711;BME280;51139;45.626;6.850;2023-08-12T00:59:14;82905.00;;;18.46;63.62
64711;BME280;51139;45.626;6.850;2023-08-12T01:01:43;82911.66;;;18.45;63.45
64711;BME280;51139;45.626;6.850;2023-08-12T01:04:08;82910.44;;;18.58;63.07
64711;BME280;51139;45.626;6.850;2023-08-12T01:06:34;82906.78;;;18.53;63.14
64711;BME280;51139;45.626;6.850;2023-08-12T01:09:00;82903.91;;;18.61;62.72
64711;BME280;51139;45.626;6.850;2023-08-12T01:11:33;82905.75;;;18.58;62.54
64711;BME280;51139;45.626;6.850;2023-08-12T01:14:07;82905.75;;;18.58;62.96
64711;BME280;51139;45.626;6.850;2023-08-12T01:16:39;82898.41;;;18.59;62.39
64711;BME280;51139;45.626;6.850;2023-08-12T01:19:06;82889.09;;;18.60;63.00
64711;BME280;51139;45.626;6.850;2023-08-12T01:21:36;82903.69;;;18.69;62.74
64711;BME280;51139;45.626;6.850;2023-08-12T01:24:05;82891.84;;;18.50;62.80
64711;BME280;51139;45.626;6.850;2023-08-12T01:26:30;82889.00;;;18.36;64.33
64711;BME280;51139;45.626;6.850;2023-08-12T01:28:55;82888.75;;;18.32;64.41
64711;BME280;51139;45.626;6.850;2023-08-12T01:31:32;82887.59;;;18.35;64.45
64711;BME280;51139;45.626;6.850;2023-08-12T01:34:12;82889.22;;;18.28;64.39
64711;BME280;51139;45.626;6.850;2023-08-12T01:36:46;82887.75;;;18.49;63.20
64711;BME280;51139;45.626;6.850;2023-08-12T01:39:12;82881.72;;;18.60;62.39
64711;BME280;51139;45.626;6.850;2023-08-12T01:41:38;82880.09;;;18.55;62.68
64711;BME280;51139;45.626;6.850;2023-08-12T01:44:03;82873.19;;;18.52;63.08
64711;BME280;51139;45.626;6.850;2023-08-12T01:46:30;82878.88;;;18.46;63.92
64711;BME280;51139;45.626;6.850;2023-08-12T01:48:56;82881.56;;;18.46;63.63
64711;BME280;51139;45.626;6.850;2023-08-12T01:51:21;82881.69;;;18.48;63.44
64711;BME280;51139;45.626;6.850;2023-08-12T01:53:47;82877.81;;;18.40;63.49
64711;BME280;51139;45.626;6.850;2023-08-12T01:56:12;82880.94;;;18.36;64.52
64711;BME280;51139;45.626;6.850;2023-08-12T01:58:38;82885.00;;;18.25;65.12
64711;BME280;51139;45.626;6.850;2023-08-12T02:01:03;82876.13;;;18.01;65.92
64711;BME280;51139;45.626;6.850;2023-08-12T02:03:28;82879.38;;;17.77;67.42
64711;BME280;51139;45.626;6.850;2023-08-12T02:05:54;82876.22;;;17.59;68.63
64711;BME280;51139;45.626;6.850;2023-08-12T02:08:19;82878.34;;;17.61;69.37
64711;BME280;51139;45.626;6.850;2023-08-12T02:10:44;82874.47;;;17.96;67.63
64711;BME280;51139;45.626;6.850;2023-08-12T02:13:10;82877.31;;;17.88;66.83
64711;BME280;51139;45.626;6.850;2023-08-12T02:15:36;82874.91;;;17.92;67.54
64711;BME280;51139;45.626;6.850;2023-08-12T02:18:03;82872.75;;;18.00;66.76
64711;BME280;51139;45.626;6.850;2023-08-12T02:20:28;82879.25;;;18.19;66.10
64711;BME280;51139;45.626;6.850;2023-08-12T02:22:54;82878.63;;;18.42;63.69
64711;BME280;51139;45.626;6.850;2023-08-12T02:25:19;82874.72;;;18.55;63.29
64711;BME280;51139;45.626;6.850;2023-08-12T02:27:44;82875.91;;;18.64;63.87
64711;BME280;51139;45.626;6.850;2023-08-12T02:30:10;82873.75;;;18.50;64.19
64711;BME280;51139;45.626;6.850;2023-08-12T02:32:35;82868.25;;;18.36;64.48
64711;BME280;51139;45.626;6.850;2023-08-12T02:35:01;82870.03;;;18.44;64.81
64711;BME280;51139;45.626;6.850;2023-08-12T02:37:26;82865.22;;;18.42;64.71
64711;BME280;51139;45.626;6.850;2023-08-12T02:39:52;82860.75;;;18.23;65.40
64711;BME280;51139;45.626;6.850;2023-08-12T02:42:17;82859.72;;;18.06;65.69
64711;BME280;51139;45.626;6.850;2023-08-12T02:44:42;82854.41;;;18.18;64.96
64711;BME280;51139;45.626;6.850;2023-08-12T02:47:08;82854.16;;;18.14;64.56
64711;BME280;51139;45.626;6.850;2023-08-12T02:49:33;82849.78;;;18.19;64.17
64711;BME280;51139;45.626;6.850;2023-08-12T02:51:58;82842.25;;;18.05;64.44
64711;BME280;51139;45.626;6.850;2023-08-12T02:54:24;82851.50;;;18.14;64.42
64711;BME280;51139;45.626;6.850;2023-08-12T02:56:50;82850.03;;;18.35;62.86
64711;BME280;51139;45.626;6.850;2023-08-12T02:59:15;82850.84;;;18.26;63.80
64711;BME280;51139;45.626;6.850;2023-08-12T03:01:44;82847.72;;;18.41;62.91
64711;BME280;51139;45.626;6.850;2023-08-12T03:04:09;82852.94;;;18.73;60.01
64711;BME280;51139;45.626;6.850;2023-08-12T03:06:35;82843.97;;;18.80;60.22
64711;BME280;51139;45.626;6.850;2023-08-12T03:09:00;82846.06;;;18.70;60.35
64711;BME280;51139;45.626;6.850;2023-08-12T03:11:26;82844.81;;;18.83;61.37
64711;BME280;51139;45.626;6.850;2023-08-12T03:13:51;82846.47;;;19.00;60.88
64711;BME280;51139;45.626;6.850;2023-08-12T03:16:16;82846.78;;;18.82;60.97
64711;BME280;51139;45.626;6.850;2023-08-12T03:18:42;82845.84;;;18.32;63.91
64711;BME280;51139;45.626;6.850;2023-08-12T03:21:08;82846.38;;;18.18;65.84
64711;BME280;51139;45.626;6.850;2023-08-12T03:23:35;82842.09;;;18.25;65.71
64711;BME280;51139;45.626;6.850;2023-08-12T03:26:01;82846.69;;;18.34;65.07
64711;BME280;51139;45.626;6.850;2023-08-12T03:28:26;82845.38;;;18.02;65.61
64711;BME280;51139;45.626;6.850;2023-08-12T03:30:52;82844.28;;;18.17;64.63
64711;BME280;51139;45.626;6.850;2023-08-12T03:33:18;82848.63;;;18.22;64.86
64711;BME280;51139;45.626;6.850;2023-08-12T03:35:47;82843.69;;;17.97;65.61
64711;BME280;51139;45.626;6.850;2023-08-12T03:38:13;82838.59;;;18.22;64.07
64711;BME280;51139;45.626;6.850;2023-08-12T03:40:39;82844.06;;;18.25;63.82
64711;BME280;51139;45.626;6.850;2023-08-12T03:43:05;82845.53;;;17.94;64.48
64711;BME280;51139;45.626;6.850;2023-08-12T03:45:30;82839.94;;;17.90;65.34
64711;BME280;51139;45.626;6.850;2023-08-12T03:47:55;82837.84;;;17.88;65.35
64711;BME280;51139;45.626;6.850;2023-08-12T03:50:21;82847.22;;;17.77;65.37
64711;BME280;51139;45.626;6.850;2023-08-12T03:52:46;82850.53;;;17.88;64.95
64711;BME280;51139;45.626;6.850;2023-08-12T03:55:12;82842.81;;;17.82;64.92
64711;BME280;51139;45.626;6.850;2023-08-12T03:57:37;82853.66;;;17.62;65.47
64711;BME280;51139;45.626;6.850;2023-08-12T04:00:03;82849.97;;;17.68;65.13
64711;BME280;51139;45.626;6.850;2023-08-12T04:02:29;82845.47;;;17.60;65.36
64711;BME280;51139;45.626;6.850;2023-08-12T04:04:55;82846.66;;;17.79;64.52
64711;BME280;51139;45.626;6.850;2023-08-12T04:07:20;82847.59;;;17.84;64.03
64711;BME280;51139;45.626;6.850;2023-08-12T04:09:46;82843.66;;;17.63;64.69
64711;BME280;51139;45.626;6.850;2023-08-12T04:12:11;82844.53;;;17.56;65.02
64711;BME280;51139;45.626;6.850;2023-08-12T04:14:36;82841.53;;;17.61;65.46
64711;BME280;51139;45.626;6.850;2023-08-12T04:17:03;82848.22;;;17.50;65.42
64711;BME280;51139;45.626;6.850;2023-08-12T04:19:28;82845.69;;;17.53;65.61
64711;BME280;51139;45.626;6.850;2023-08-12T04:21:54;82847.25;;;17.46;65.60
64711;BME280;51139;45.626;6.850;2023-08-12T04:24:19;82841.91;;;17.46;65.45
64711;BME280;51139;45.626;6.850;2023-08-12T04:26:45;82841.00;;;17.53;64.99
64711;BME280;51139;45.626;6.850;2023-08-12T04:29:10;82842.22;;;17.40;66.03
64711;BME280;51139;45.626;6.850;2023-08-12T04:31:35;82840.63;;;17.47;65.13
64711;BME280;51139;45.626;6.850;2023-08-12T04:34:01;82840.31;;;17.53;64.99
64711;BME280;51139;45.626;6.850;2023-08-12T04:36:27;82841.47;;;17.49;65.25
64711;BME280;51139;45.626;6.850;2023-08-12T04:38:52;82844.53;;;17.56;64.67
64711;BME280;51139;45.626;6.850;2023-08-12T04:41:18;82843.13;;;17.55;64.30
64711;BME280;51139;45.626;6.850;2023-08-12T04:43:43;82844.06;;;17.59;64.54
64711;BME280;51139;45.626;6.850;2023-08-12T04:46:09;82847.59;;;17.62;64.46
64711;BME280;51139;45.626;6.850;2023-08-12T04:48:34;82839.50;;;17.72;64.46
64711;BME280;51139;45.626;6.850;2023-08-12T04:50:59;82841.47;;;17.93;63.47
64711;BME280;51139;45.626;6.850;2023-08-12T04:53:26;82834.66;;;17.80;63.17
64711;BME280;51139;45.626;6.850;2023-08-12T04:55:53;82840.59;;;17.57;64.43
64711;BME280;51139;45.626;6.850;2023-08-12T04:58:19;82840.19;;;17.50;64.53
64711;BME280;51139;45.626;6.850;2023-08-12T05:00:44;82832.28;;;17.74;63.71
64711;BME280;51139;45.626;6.850;2023-08-12T05:03:10;82834.78;;;17.60;64.20
64711;BME280;51139;45.626;6.850;2023-08-12T05:05:36;82837.78;;;17.55;65.50
64711;BME280;51139;45.626;6.850;2023-08-12T05:08:02;82841.41;;;17.59;64.99
64711;BME280;51139;45.626;6.850;2023-08-12T05:10:27;82838.25;;;17.73;64.20
64711;BME280;51139;45.626;6.850;2023-08-12T05:12:53;82833.44;;;17.71;63.86
64711;BME280;51139;45.626;6.850;2023-08-12T05:15:19;82839.06;;;17.75;63.61
64711;BME280;51139;45.626;6.850;2023-08-12T05:17:45;82835.81;;;17.77;64.32
64711;BME280;51139;45.626;6.850;2023-08-12T05:20:10;82842.06;;;17.70;64.87
64711;BME280;51139;45.626;6.850;2023-08-12T05:22:36;82840.72;;;18.02;63.51
64711;BME280;51139;45.626;6.850;2023-08-12T05:25:01;82837.78;;;17.76;64.12
64711;BME280;51139;45.626;6.850;2023-08-12T05:27:26;82846.72;;;17.69;64.52
64711;BME280;51139;45.626;6.850;2023-08-12T05:29:52;82836.50;;;17.77;65.37
64711;BME280;51139;45.626;6.850;2023-08-12T05:32:17;82840.56;;;17.78;64.40
64711;BME280;51139;45.626;6.850;2023-08-12T05:34:43;82843.91;;;17.67;65.83
64711;BME280;51139;45.626;6.850;2023-08-12T05:37:08;82834.00;;;17.91;65.11
64711;BME280;51139;45.626;6.850;2023-08-12T05:39:34;82839.97;;;18.12;64.38
64711;BME280;51139;45.626;6.850;2023-08-12T05:41:59;82838.59;;;18.22;62.34
64711;BME280;51139;45.626;6.850;2023-08-12T05:44:25;82843.50;;;18.04;64.06
64711;BME280;51139;45.626;6.850;2023-08-12T05:46:50;82834.81;;;17.94;63.76
64711;BME280;51139;45.626;6.850;2023-08-12T05:49:15;82835.84;;;17.89;64.44
64711;BME280;51139;45.626;6.850;2023-08-12T05:51:41;82832.16;;;17.94;65.54
64711;BME280;51139;45.626;6.850;2023-08-12T05:54:07;82841.00;;;18.18;64.22
64711;BME280;51139;45.626;6.850;2023-08-12T05:56:32;82834.63;;;18.69;61.46
64711;BME280;51139;45.626;6.850;2023-08-12T05:58:57;82846.41;;;18.64;60.64
64711;BME280;51139;45.626;6.850;2023-08-12T06:01:23;82842.06;;;19.04;59.72
64711;BME280;51139;45.626;6.850;2023-08-12T06:03:48;82842.91;;;18.61;61.92
64711;BME280;51139;45.626;6.850;2023-08-12T06:06:13;82846.97;;;18.62;62.89
64711;BME280;51139;45.626;6.850;2023-08-12T06:08:39;82847.59;;;18.73;62.12
64711;BME280;51139;45.626;6.850;2023-08-12T06:11:04;82851.09;;;18.75;60.47
64711;BME280;51139;45.626;6.850;2023-08-12T06:13:29;82842.34;;;18.75;61.11
64711;BME280;51139;45.626;6.850;2023-08-12T06:15:55;82853.75;;;19.09;59.29
64711;BME280;51139;45.626;6.850;2023-08-12T06:18:20;82845.69;;;19.45;58.90
64711;BME280;51139;45.626;6.850;2023-08-12T06:20:46;82852.31;;;19.79;56.20
64711;BME280;51139;45.626;6.850;2023-08-12T06:23:11;82842.06;;;19.16;59.50
64711;BME280;51139;45.626;6.850;2023-08-12T06:25:36;82846.72;;;19.16;58.53
64711;BME280;51139;45.626;6.850;2023-08-12T06:28:02;82851.63;;;19.79;55.85
64711;BME280;51139;45.626;6.850;2023-08-12T06:30:30;82853.81;;;19.82;58.01
64711;BME280;51139;45.626;6.850;2023-08-12T06:32:56;82856.94;;;20.15;53.08
64711;BME280;51139;45.626;6.850;2023-08-12T06:35:22;82851.38;;;20.36;52.64
64711;BME280;51139;45.626;6.850;2023-08-12T06:37:47;82850.94;;;20.66;51.62
64711;BME280;51139;45.626;6.850;2023-08-12T06:40:13;82853.84;;;20.32;51.21
64711;BME280;51139;45.626;6.850;2023-08-12T06:42:38;82846.56;;;20.09;52.91
64711;BME280;51139;45.626;6.850;2023-08-12T06:45:04;82848.69;;;20.62;52.09
64711;BME280;51139;45.626;6.850;2023-08-12T06:47:29;82851.81;;;20.82;48.88
64711;BME280;51139;45.626;6.850;2023-08-12T06:49:55;82852.44;;;20.95;49.74
64711;BME280;51139;45.626;6.850;2023-08-12T06:52:21;82852.75;;;21.27;51.16
64711;BME280;51139;45.626;6.850;2023-08-12T06:54:46;82860.91;;;21.29;53.36
64711;BME280;51139;45.626;6.850;2023-08-12T06:57:11;82852.84;;;21.29;51.03
64711;BME280;51139;45.626;6.850;2023-08-12T06:59:38;82859.59;;;21.70;50.07
64711;BME280;51139;45.626;6.850;2023-08-12T07:02:03;82854.41;;;22.16;48.35
64711;BME280;51139;45.626;6.850;2023-08-12T07:04:29;82855.31;;;21.79;46.26
64711;BME280;51139;45.626;6.850;2023-08-12T07:06:54;82857.56;;;22.40;47.61
64711;BME280;51139;45.626;6.850;2023-08-12T07:09:20;82855.38;;;22.09;47.17
64711;BME280;51139;45.626;6.850;2023-08-12T07:11:45;82854.19;;;22.26;47.89
64711;BME280;51139;45.626;6.850;2023-08-12T07:14:11;82853.81;;;22.76;43.68
64711;BME280;51139;45.626;6.850;2023-08-12T07:16:36;82849.09;;;22.76;42.31
64711;BME280;51139;45.626;6.850;2023-08-12T07:19:01;82843.88;;;23.40;42.90
64711;BME280;51139;45.626;6.850;2023-08-12T07:21:27;82847.00;;;23.83;42.99
64711;BME280;51139;45.626;6.850;2023-08-12T07:23:52;82842.53;;;23.25;42.27
64711;BME280;51139;45.626;6.850;2023-08-12T07:26:18;82839.78;;;23.09;43.69
64711;BME280;51139;45.626;6.850;2023-08-12T07:28:43;82846.31;;;23.20;42.47
64711;BME280;51139;45.626;6.850;2023-08-12T07:31:08;82841.78;;;23.55;43.00
64711;BME280;51139;45.626;6.850;2023-08-12T07:33:34;82845.41;;;23.29;44.49
64711;BME280;51139;45.626;6.850;2023-08-12T07:36:00;82849.19;;;23.38;43.75
64711;BME280;51139;45.626;6.850;2023-08-12T07:38:26;82842.91;;;23.50;44.85
64711;BME280;51139;45.626;6.850;2023-08-12T07:40:51;82838.97;;;23.85;43.91
64711;BME280;51139;45.626;6.850;2023-08-12T07:43:17;82844.13;;;23.63;44.52
64711;BME280;51139;45.626;6.850;2023-08-12T07:45:42;82839.88;;;24.06;43.23
64711;BME280;51139;45.626;6.850;2023-08-12T07:48:07;82849.63;;;24.13;44.43
64711;BME280;51139;45.626;6.850;2023-08-12T07:50:33;82850.84;;;24.60;41.81
64711;BME280;51139;45.626;6.850;2023-08-12T07:52:58;82850.03;;;24.39;44.08
64711;BME280;51139;45.626;6.850;2023-08-12T07:55:24;82846.72;;;25.11;41.52
64711;BME280;51139;45.626;6.850;2023-08-12T07:57:49;82853.06;;;24.47;43.04
64711;BME280;51139;45.626;6.850;2023-08-12T08:00:15;82843.69;;;24.16;42.98
64711;BME280;51139;45.626;6.850;2023-08-12T08:02:40;82843.41;;;24.26;42.11
64711;BME280;51139;45.626;6.850;2023-08-12T08:05:06;82850.50;;;24.52;41.68
64711;BME280;51139;45.626;6.850;2023-08-12T08:07:32;82844.91;;;23.97;43.38
64711;BME280;51139;45.626;6.850;2023-08-12T08:09:57;82853.38;;;24.90;42.67
64711;BME280;51139;45.626;6.850;2023-08-12T08:12:23;82855.25;;;24.69;41.71
64711;BME280;51139;45.626;6.850;2023-08-12T08:14:49;82842.91;;;23.98;42.45
64711;BME280;51139;45.626;6.850;2023-08-12T08:17:14;82845.25;;;24.56;40.44
64711;BME280;51139;45.626;6.850;2023-08-12T08:19:39;82849.69;;;23.99;45.91
64711;BME280;51139;45.626;6.850;2023-08-12T08:22:05;82849.41;;;24.25;46.36
64711;BME280;51139;45.626;6.850;2023-08-12T08:24:30;82847.59;;;24.13;46.66
64711;BME280;51139;45.626;6.850;2023-08-12T08:26:56;82860.28;;;24.59;44.91
64711;BME280;51139;45.626;6.850;2023-08-12T08:29:21;82854.91;;;24.27;46.87
64711;BME280;51139;45.626;6.850;2023-08-12T08:31:47;82851.63;;;23.80;46.67
64711;BME280;51139;45.626;6.850;2023-08-12T08:34:12;82855.28;;;24.53;39.73
64711;BME280;51139;45.626;6.850;2023-08-12T08:36:38;82849.53;;;24.61;43.84
64711;BME280;51139;45.626;6.850;2023-08-12T08:39:03;82850.59;;;25.24;38.35
64711;BME280;51139;45.626;6.850;2023-08-12T08:41:31;82852.06;;;25.63;38.79
64711;BME280;51139;45.626;6.850;2023-08-12T08:44:01;82844.16;;;24.79;40.60
64711;BME280;51139;45.626;6.850;2023-08-12T08:46:29;82851.50;;;24.42;36.72
64711;BME280;51139;45.626;6.850;2023-08-12T08:48:55;82851.84;;;24.34;38.37
64711;BME280;51139;45.626;6.850;2023-08-12T08:51:21;82852.34;;;24.47;44.39
64711;BME280;51139;45.626;6.850;2023-08-12T08:53:47;82851.88;;;24.18;43.61
64711;BME280;51139;45.626;6.850;2023-08-12T08:56:13;82847.00;;;23.99;43.29
64711;BME280;51139;45.626;6.850;2023-08-12T08:58:38;82858.59;;;24.17;41.71
64711;BME280;51139;45.626;6.850;2023-08-12T09:01:06;82852.66;;;23.25;44.41
64711;BME280;51139;45.626;6.850;2023-08-12T09:03:33;82855.75;;;23.49;43.85
64711;BME280;51139;45.626;6.850;2023-08-12T09:06:00;82866.47;;;23.17;45.78
64711;BME280;51139;45.626;6.850;2023-08-12T09:08:26;82855.13;;;23.83;46.03
64711;BME280;51139;45.626;6.850;2023-08-12T09:10:53;82857.22;;;23.68;45.93
64711;BME280;51139;45.626;6.850;2023-08-12T09:13:18;82851.72;;;23.82;45.59
64711;BME280;51139;45.626;6.850;2023-08-12T09:15:44;82858.44;;;23.81;43.39
64711;BME280;51139;45.626;6.850;2023-08-12T09:18:09;82853.72;;;23.98;44.11
64711;BME280;51139;45.626;6.850;2023-08-12T09:20:35;82862.34;;;24.26;44.21
64711;BME280;51139;45.626;6.850;2023-08-12T09:23:01;82859.28;;;25.39;40.50
64711;BME280;51139;45.626;6.850;2023-08-12T09:25:28;82865.63;;;25.09;39.72
64711;BME280;51139;45.626;6.850;2023-08-12T09:27:55;82866.88;;;24.22;41.49
64711;BME280;51139;45.626;6.850;2023-08-12T09:30:21;82867.09;;;25.48;39.24
64711;BME280;51139;45.626;6.850;2023-08-12T09:33:01;82870.81;;;25.21;40.09
64711;BME280;51139;45.626;6.850;2023-08-12T09:35:38;82877.16;;;25.28;40.53
64711;BME280;51139;45.626;6.850;2023-08-12T09:38:05;82865.69;;;24.59;43.04
64711;BME280;51139;45.626;6.850;2023-08-12T09:40:35;82868.38;;;24.25;41.57
64711;BME280;51139;45.626;6.850;2023-08-12T09:43:01;82864.41;;;24.44;40.75
64711;BME280;51139;45.626;6.850;2023-08-12T09:45:27;82876.34;;;24.89;41.15
64711;BME280;51139;45.626;6.850;2023-08-12T09:47:54;82867.25;;;25.34;38.54
64711;BME280;51139;45.626;6.850;2023-08-12T09:50:22;82872.03;;;25.36;41.49
64711;BME280;51139;45.626;6.850;2023-08-12T09:52:49;82876.06;;;24.99;42.35
64711;BME280;51139;45.626;6.850;2023-08-12T09:55:19;82869.56;;;24.72;39.85
64711;BME280;51139;45.626;6.850;2023-08-12T09:57:48;82875.69;;;25.25;41.16
64711;BME280;51139;45.626;6.850;2023-08-12T10:00:14;82875.44;;;25.00;41.41
64711;BME280;51139;45.626;6.850;2023-08-12T10:02:48;82872.97;;;25.06;40.24
64711;BME280;51139;45.626;6.850;2023-08-12T10:05:31;82880.16;;;24.66;42.82
64711;BME280;51139;45.626;6.850;2023-08-12T10:07:56;82873.88;;;24.77;39.90
64711;BME280;51139;45.626;6.850;2023-08-12T10:10:23;82870.94;;;24.55;42.40
64711;BME280;51139;45.626;6.850;2023-08-12T10:12:50;82881.34;;;24.44;41.26
64711;BME280;51139;45.626;6.850;2023-08-12T10:15:15;82877.72;;;24.22;42.80
64711;BME280;51139;45.626;6.850;2023-08-12T10:17:41;82878.47;;;24.40;43.57
64711;BME280;51139;45.626;6.850;2023-08-12T10:20:08;82878.06;;;24.98;43.35
64711;BME280;51139;45.626;6.850;2023-08-12T10:22:39;82875.19;;;24.60;46.58
64711;BME280;51139;45.626;6.850;2023-08-12T10:25:07;82871.03;;;23.28;45.50
64711;BME280;51139;45.626;6.850;2023-08-12T10:27:34;82877.28;;;23.79;44.74
64711;BME280;51139;45.626;6.850;2023-08-12T10:30:03;82870.63;;;24.30;44.14
64711;BME280;51139;45.626;6.850;2023-08-12T10:32:30;82869.00;;;24.23;44.29
64711;BME280;51139;45.626;6.850;2023-08-12T10:34:59;82863.94;;;24.15;46.10
64711;BME280;51139;45.626;6.850;2023-08-12T10:37:25;82867.31;;;24.32;45.61
64711;BME280;51139;45.626;6.850;2023-08-12T10:39:54;82870.94;;;24.04;45.77
64711;BME280;51139;45.626;6.850;2023-08-12T10:45:08;82864.63;;;24.66;47.63
64711;BME280;51139;45.626;6.850;2023-08-12T10:47:41;82865.69;;;24.75;45.55
64711;BME280;51139;45.626;6.850;2023-08-12T10:50:16;82857.28;;;24.18;47.03
64711;BME280;51139;45.626;6.850;2023-08-12T10:52:43;82857.13;;;24.14;49.63
64711;BME280;51139;45.626;6.850;2023-08-12T10:55:20;82860.34;;;24.77;46.92
64711;BME280;51139;45.626;6.850;2023-08-12T10:57:46;82854.28;;;24.44;48.97
64711;BME280;51139;45.626;6.850;2023-08-12T11:00:19;82848.66;;;24.56;45.92
64711;BME280;51139;45.626;6.850;2023-08-12T11:02:51;82850.81;;;24.76;45.57
64711;BME280;51139;45.626;6.850;2023-08-12T11:05:17;82852.13;;;24.93;43.44
64711;BME280;51139;45.626;6.850;2023-08-12T11:07:46;82843.84;;;24.21;44.70
64711;BME280;51139;45.626;6.850;2023-08-12T11:10:24;82859.81;;;24.30;46.13
64711;BME280;51139;45.626;6.850;2023-08-12T11:12:55;82848.72;;;24.58;45.52
64711;BME280;51139;45.626;6.850;2023-08-12T11:15:37;82855.31;;;25.05;43.37
64711;BME280;51139;45.626;6.850;2023-08-12T11:18:10;82844.56;;;25.08;43.75
64711;BME280;51139;45.626;6.850;2023-08-12T11:20:38;82841.00;;;24.69;42.52
64711;BME280;51139;45.626;6.850;2023-08-12T11:23:04;82842.88;;;24.64;42.52
64711;BME280;51139;45.626;6.850;2023-08-12T11:25:31;82843.16;;;24.88;42.24
64711;BME280;51139;45.626;6.850;2023-08-12T11:27:57;82840.00;;;24.60;43.78
64711;BME280;51139;45.626;6.850;2023-08-12T11:30:23;82842.94;;;24.66;41.10
64711;BME280;51139;45.626;6.850;2023-08-12T11:32:51;82832.56;;;24.42;43.48
64711;BME280;51139;45.626;6.850;2023-08-12T11:35:18;82834.00;;;24.11;47.00
64711;BME280;51139;45.626;6.850;2023-08-12T11:37:45;82830.84;;;24.51;45.98
64711;BME280;51139;45.626;6.850;2023-08-12T11:40:12;82833.56;;;24.51;45.38
64711;BME280;51139;45.626;6.850;2023-08-12T11:42:41;82826.16;;;24.70;45.05
64711;BME280;51139;45.626;6.850;2023-08-12T11:45:07;82823.84;;;24.62;45.65
64711;BME280;51139;45.626;6.850;2023-08-12T11:47:37;82830.22;;;24.34;45.43
64711;BME280;51139;45.626;6.850;2023-08-12T11:50:07;82827.09;;;24.24;45.21
64711;BME280;51139;45.626;6.850;2023-08-12T11:52:34;82835.34;;;24.44;46.94
64711;BME280;51139;45.626;6.850;2023-08-12T11:55:00;82820.13;;;24.03;44.57
64711;BME280;51139;45.626;6.850;2023-08-12T11:57:26;82828.22;;;24.35;44.98
64711;BME280;51139;45.626;6.850;2023-08-12T11:59:58;82824.69;;;23.82;47.30
64711;BME280;51139;45.626;6.850;2023-08-12T12:02:24;82831.16;;;24.59;44.62
64711;BME280;51139;45.626;6.850;2023-08-12T12:04:51;82834.63;;;24.96;45.42
64711;BME280;51139;45.626;6.850;2023-08-12T12:07:23;82831.31;;;24.80;43.63
64711;BME280;51139;45.626;6.850;2023-08-12T12:09:54;82830.94;;;24.53;43.34
64711;BME280;51139;45.626;6.850;2023-08-12T12:12:24;82827.13;;;24.76;44.24
64711;BME280;51139;45.626;6.850;2023-08-12T12:14:53;82830.31;;;24.89;44.30
64711;BME280;51139;45.626;6.850;2023-08-12T12:17:24;82833.25;;;24.95;45.19
64711;BME280;51139;45.626;6.850;2023-08-12T12:20:00;82823.72;;;24.94;45.61
64711;BME280;51139;45.626;6.850;2023-08-12T12:22:27;82811.66;;;23.95;44.84
64711;BME280;51139;45.626;6.850;2023-08-12T12:24:53;82814.69;;;24.87;46.29
64711;BME280;51139;45.626;6.850;2023-08-12T12:27:18;82810.44;;;25.57;43.28
64711;BME280;51139;45.626;6.850;2023-08-12T12:29:44;82812.00;;;25.44;40.50
64711;BME280;51139;45.626;6.850;2023-08-12T12:32:10;82806.75;;;25.30;42.16
64711;BME280;51139;45.626;6.850;2023-08-12T12:34:35;82810.56;;;25.41;40.46
64711;BME280;51139;45.626;6.850;2023-08-12T12:37:00;82804.47;;;25.22;40.08
64711;BME280;51139;45.626;6.850;2023-08-12T12:39:26;82808.56;;;25.05;45.26
64711;BME280;51139;45.626;6.850;2023-08-12T12:41:52;82809.03;;;24.99;40.19
64711;BME280;51139;45.626;6.850;2023-08-12T12:44:17;82810.25;;;24.44;41.65
64711;BME280;51139;45.626;6.850;2023-08-12T12:46:43;82806.50;;;24.69;42.56
64711;BME280;51139;45.626;6.850;2023-08-12T12:49:08;82801.56;;;23.95;43.65
64711;BME280;51139;45.626;6.850;2023-08-12T12:51:33;82812.94;;;24.60;43.42
64711;BME280;51139;45.626;6.850;2023-08-12T12:53:59;82809.16;;;25.40;41.00
64711;BME280;51139;45.626;6.850;2023-08-12T12:56:24;82805.00;;;24.82;43.75
64711;BME280;51139;45.626;6.850;2023-08-12T12:58:50;82809.09;;;25.38;41.44